sensor_id;sensor_type;location;lat;lon;timestamp;pressure;altitude;pressure_sealevel;temperature;humidity
11329;BME280;5719;42.714;23.732;2023-02-18T00:01:08;95166.81;;;3.34;62.12
11329;BME280;5719;42.714;23.732;2023-02-18T00:03:35;95166.03;;;3.32;61.69
11329;BME280;5719;42.714;23.732;2023-02-18T00:06:11;95157.72;;;3.25;62.27
11329;BME280;5719;42.714;23.732;2023-02-18T00:08:38;95165.50;;;3.22;62.79
11329;BME280;5719;42.714;23.732;2023-02-18T00:11:05;95163.91;;;3.20;62.46
11329;BME280;5719;42.714;23.732;2023-02-18T00:13:33;95156.38;;;3.15;62.70
11329;BME280;5719;42.714;23.732;2023-02-18T00:16:01;95153.13;;;3.10;63.29
11329;BME280;5719;42.714;23.732;2023-02-18T00:18:28;95160.03;;;3.07;63.01
11329;BME280;5719;42.714;23.732;2023-02-18T00:20:55;95156.81;;;3.02;63.91
11329;BME280;5719;42.714;23.732;2023-02-18T00:23:23;95145.91;;;2.96;63.55
11329;BME280;5719;42.714;23.732;2023-02-18T00:25:58;95149.53;;;2.89;63.66
11329;BME280;5719;42.714;23.732;2023-02-18T00:28:25;95138.28;;;2.69;64.66
11329;BME280;5719;42.714;23.732;2023-02-18T00:30:52;95139.81;;;2.74;64.04
11329;BME280;5719;42.714;23.732;2023-02-18T00:33:19;95136.38;;;2.75;63.81
11329;BME280;5719;42.714;23.732;2023-02-18T00:35:46;95135.56;;;2.73;64.04
11329;BME280;5719;42.714;23.732;2023-02-18T00:38:13;95127.19;;;2.70;64.09
11329;BME280;5719;42.714;23.732;2023-02-18T00:40:41;95120.47;;;2.67;64.34
11329;BME280;5719;42.714;23.732;2023-02-18T00:43:09;95121.41;;;2.65;64.77
11329;BME280;5719;42.714;23.732;2023-02-18T00:45:36;95124.00;;;2.63;64.04
11329;BME280;5719;42.714;23.732;2023-02-18T00:48:02;95118.13;;;2.60;64.44
11329;BME280;5719;42.714;23.732;2023-02-18T00:50:29;95118.22;;;2.58;65.43
11329;BME280;5719;42.714;23.732;2023-02-18T00:52:56;95120.91;;;2.54;65.80
11329;BME280;5719;42.714;23.732;2023-02-18T00:55:23;95121.66;;;2.29;66.67
11329;BME280;5719;42.714;23.732;2023-02-18T00:57:51;95118.28;;;2.27;66.23
11329;BME280;5719;42.714;23.732;2023-02-18T01:00:18;95126.00;;;2.26;66.80
11329;BME280;5719;42.714;23.732;2023-02-18T01:02:45;95115.94;;;2.21;66.61
11329;BME280;5719;42.714;23.732;2023-02-18T01:05:12;95109.13;;;2.22;66.21
11329;BME280;5719;42.714;23.732;2023-02-18T01:07:39;95117.53;;;2.24;66.62
11329;BME280;5719;42.714;23.732;2023-02-18T01:10:07;95110.81;;;2.21;66.35
11329;BME280;5719;42.714;23.732;2023-02-18T01:12:33;95108.28;;;2.21;67.28
11329;BME280;5719;42.714;23.732;2023-02-18T01:15:02;95101.69;;;2.14;67.29
11329;BME280;5719;42.714;23.732;2023-02-18T01:17:30;95106.81;;;2.13;67.46
11329;BME280;5719;42.714;23.732;2023-02-18T01:19:57;95100.03;;;2.12;68.60
11329;BME280;5719;42.714;23.732;2023-02-18T01:22:24;95094.94;;;2.12;68.12
11329;BME280;5719;42.714;23.732;2023-02-18T01:24:51;95093.38;;;2.08;68.54
11329;BME280;5719;42.714;23.732;2023-02-18T01:27:18;95087.34;;;2.10;68.63
11329;BME280;5719;42.714;23.732;2023-02-18T01:29:44;95088.13;;;2.12;68.05
11329;BME280;5719;42.714;23.732;2023-02-18T01:32:13;95088.41;;;2.03;69.37
11329;BME280;5719;42.714;23.732;2023-02-18T01:34:40;95091.00;;;2.02;69.19
11329;BME280;5719;42.714;23.732;2023-02-18T01:37:06;95094.34;;;2.04;69.88
11329;BME280;5719;42.714;23.732;2023-02-18T01:39:33;95096.22;;;1.97;70.11
11329;BME280;5719;42.714;23.732;2023-02-18T01:42:00;95094.50;;;1.97;69.05
11329;BME280;5719;42.714;23.732;2023-02-18T01:44:28;95093.84;;;1.92;70.26
11329;BME280;5719;42.714;23.732;2023-02-18T01:46:55;95091.19;;;1.95;69.59
11329;BME280;5719;42.714;23.732;2023-02-18T01:49:26;95094.50;;;1.97;69.79
11329;BME280;5719;42.714;23.732;2023-02-18T01:51:56;95097.19;;;1.01;73.95
11329;BME280;5719;42.714;23.732;2023-02-18T01:54:27;95087.22;;;0.91;74.83
11329;BME280;5719;42.714;23.732;2023-02-18T01:56:58;95088.13;;;1.23;73.83
11329;BME280;5719;42.714;23.732;2023-02-18T01:59:29;95101.31;;;1.37;72.88
11329;BME280;5719;42.714;23.732;2023-02-18T02:01:57;95094.25;;;1.46;72.00
11329;BME280;5719;42.714;23.732;2023-02-18T02:04:25;95099.06;;;1.57;72.13
11329;BME280;5719;42.714;23.732;2023-02-18T02:06:52;95100.66;;;1.61;72.07
11329;BME280;5719;42.714;23.732;2023-02-18T02:09:21;95104.09;;;1.60;71.38
11329;BME280;5719;42.714;23.732;2023-02-18T02:12:13;95103.66;;;1.44;70.72
11329;BME280;5719;42.714;23.732;2023-02-18T02:14:47;95106.53;;;1.32;70.91
11329;BME280;5719;42.714;23.732;2023-02-18T02:17:23;95105.22;;;1.18;72.57
11329;BME280;5719;42.714;23.732;2023-02-18T02:20:29;95106.66;;;0.60;75.82
11329;BME280;5719;42.714;23.732;2023-02-18T02:29:33;95099.38;;;0.80;74.88
11329;BME280;5719;42.714;23.732;2023-02-18T02:32:20;95108.41;;;0.93;74.62
11329;BME280;5719;42.714;23.732;2023-02-18T02:34:57;95097.84;;;1.07;73.63
11329;BME280;5719;42.714;23.732;2023-02-18T02:37:30;95102.84;;;1.12;72.99
11329;BME280;5719;42.714;23.732;2023-02-18T02:40:02;95103.75;;;1.09;73.10
11329;BME280;5719;42.714;23.732;2023-02-18T02:42:39;95097.19;;;1.01;72.71
11329;BME280;5719;42.714;23.732;2023-02-18T02:45:17;95099.91;;;0.93;73.80
11329;BME280;5719;42.714;23.732;2023-02-18T02:47:55;95104.16;;;0.92;73.34
11329;BME280;5719;42.714;23.732;2023-02-18T02:50:29;95114.19;;;0.98;73.45
11329;BME280;5719;42.714;23.732;2023-02-18T02:53:03;95104.94;;;0.96;73.29
11329;BME280;5719;42.714;23.732;2023-02-18T02:55:31;95110.41;;;0.81;74.68
11329;BME280;5719;42.714;23.732;2023-02-18T02:57:58;95112.75;;;0.88;74.60
11329;BME280;5719;42.714;23.732;2023-02-18T03:00:34;95117.75;;;0.93;74.10
11329;BME280;5719;42.714;23.732;2023-02-18T03:03:28;95121.03;;;0.96;73.21
11329;BME280;5719;42.714;23.732;2023-02-18T03:06:10;95116.81;;;0.95;72.50
11329;BME280;5719;42.714;23.732;2023-02-18T03:08:46;95114.50;;;0.86;72.57
11329;BME280;5719;42.714;23.732;2023-02-18T03:11:17;95111.41;;;0.75;72.70
11329;BME280;5719;42.714;23.732;2023-02-18T03:13:53;95116.47;;;0.75;73.76
11329;BME280;5719;42.714;23.732;2023-02-18T03:16:27;95106.22;;;0.78;72.87
11329;BME280;5719;42.714;23.732;2023-02-18T03:19:06;95102.25;;;0.67;75.60
11329;BME280;5719;42.714;23.732;2023-02-18T03:21:40;95114.19;;;0.65;75.50
11329;BME280;5719;42.714;23.732;2023-02-18T03:24:14;95122.34;;;0.77;75.44
11329;BME280;5719;42.714;23.732;2023-02-18T03:26:47;95115.47;;;0.81;74.51
11329;BME280;5719;42.714;23.732;2023-02-18T03:29:17;95123.03;;;0.84;75.62
11329;BME280;5719;42.714;23.732;2023-02-18T03:31:47;95117.94;;;0.85;75.29
11329;BME280;5719;42.714;23.732;2023-02-18T03:34:17;95123.03;;;0.84;75.42
11329;BME280;5719;42.714;23.732;2023-02-18T03:36:48;95133.94;;;0.90;76.04
11329;BME280;5719;42.714;23.732;2023-02-18T03:39:17;95128.78;;;0.92;75.57
11329;BME280;5719;42.714;23.732;2023-02-18T03:41:45;95133.94;;;0.89;75.19
11329;BME280;5719;42.714;23.732;2023-02-18T03:44:12;95137.44;;;0.85;74.45
11329;BME280;5719;42.714;23.732;2023-02-18T03:46:41;95140.91;;;0.82;75.09
11329;BME280;5719;42.714;23.732;2023-02-18T03:49:09;95139.13;;;0.86;74.13
11329;BME280;5719;42.714;23.732;2023-02-18T03:51:36;95134.00;;;0.87;74.62
11329;BME280;5719;42.714;23.732;2023-02-18T03:54:05;95140.75;;;0.88;73.84
11329;BME280;5719;42.714;23.732;2023-02-18T03:56:32;95149.28;;;0.87;73.78
11329;BME280;5719;42.714;23.732;2023-02-18T03:58:59;95152.63;;;0.88;73.35
11329;BME280;5719;42.714;23.732;2023-02-18T04:01:26;95150.06;;;0.89;74.21
11329;BME280;5719;42.714;23.732;2023-02-18T04:03:53;95150.09;;;0.88;74.42
11329;BME280;5719;42.714;23.732;2023-02-18T04:06:21;95145.94;;;0.84;74.22
11329;BME280;5719;42.714;23.732;2023-02-18T04:08:48;95135.91;;;0.79;74.22
11329;BME280;5719;42.714;23.732;2023-02-18T04:11:16;95130.13;;;0.73;74.68
11329;BME280;5719;42.714;23.732;2023-02-18T04:13:43;95123.28;;;0.73;74.37
11329;BME280;5719;42.714;23.732;2023-02-18T04:16:10;95114.47;;;0.53;75.81
11329;BME280;5719;42.714;23.732;2023-02-18T04:18:37;95126.44;;;0.47;76.48
11329;BME280;5719;42.714;23.732;2023-02-18T04:21:04;95122.09;;;0.54;77.39
11329;BME280;5719;42.714;23.732;2023-02-18T04:23:31;95132.44;;;0.45;78.71
11329;BME280;5719;42.714;23.732;2023-02-18T04:25:58;95131.25;;;0.23;79.14
11329;BME280;5719;42.714;23.732;2023-02-18T04:28:26;95114.59;;;0.10;79.91
11329;BME280;5719;42.714;23.732;2023-02-18T04:30:53;95125.84;;;-0.02;81.51
11329;BME280;5719;42.714;23.732;2023-02-18T04:33:20;95133.69;;;-0.11;82.16
11329;BME280;5719;42.714;23.732;2023-02-18T04:35:47;95126.84;;;-0.08;83.40
11329;BME280;5719;42.714;23.732;2023-02-18T04:38:13;95132.47;;;0.07;82.61
11329;BME280;5719;42.714;23.732;2023-02-18T04:40:40;95127.25;;;0.11;83.18
11329;BME280;5719;42.714;23.732;2023-02-18T04:43:07;95138.84;;;0.24;81.79
11329;BME280;5719;42.714;23.732;2023-02-18T04:45:35;95142.88;;;0.33;81.36
11329;BME280;5719;42.714;23.732;2023-02-18T04:48:03;95148.72;;;0.38;80.76
11329;BME280;5719;42.714;23.732;2023-02-18T04:50:29;95140.94;;;0.44;80.03
11329;BME280;5719;42.714;23.732;2023-02-18T04:52:56;95139.97;;;0.49;79.94
11329;BME280;5719;42.714;23.732;2023-02-18T04:55:23;95139.88;;;0.54;79.19
11329;BME280;5719;42.714;23.732;2023-02-18T04:57:50;95144.06;;;0.55;79.02
11329;BME280;5719;42.714;23.732;2023-02-18T05:00:18;95138.94;;;0.58;78.14
11329;BME280;5719;42.714;23.732;2023-02-18T05:02:47;95141.41;;;0.61;78.45
11329;BME280;5719;42.714;23.732;2023-02-18T05:05:14;95138.88;;;0.61;78.10
11329;BME280;5719;42.714;23.732;2023-02-18T05:07:41;95120.16;;;0.62;79.04
11329;BME280;5719;42.714;23.732;2023-02-18T05:10:08;95125.13;;;0.68;79.47
11329;BME280;5719;42.714;23.732;2023-02-18T05:12:36;95121.72;;;0.69;80.10
11329;BME280;5719;42.714;23.732;2023-02-18T05:15:03;95121.16;;;0.57;81.65
11329;BME280;5719;42.714;23.732;2023-02-18T05:17:30;95118.38;;;0.30;84.64
11329;BME280;5719;42.714;23.732;2023-02-18T05:19:58;95102.22;;;-0.06;85.82
11329;BME280;5719;42.714;23.732;2023-02-18T05:22:25;95107.28;;;-0.04;87.73
11329;BME280;5719;42.714;23.732;2023-02-18T05:24:51;95113.84;;;0.05;88.75
11329;BME280;5719;42.714;23.732;2023-02-18T05:27:18;95118.66;;;0.18;89.44
11329;BME280;5719;42.714;23.732;2023-02-18T05:29:45;95117.50;;;0.31;89.49
11329;BME280;5719;42.714;23.732;2023-02-18T05:32:12;95128.28;;;0.41;88.49
11329;BME280;5719;42.714;23.732;2023-02-18T05:34:39;95127.38;;;0.45;88.56
11329;BME280;5719;42.714;23.732;2023-02-18T05:37:08;95118.78;;;0.49;88.37
11329;BME280;5719;42.714;23.732;2023-02-18T05:39:35;95130.75;;;0.44;88.72
11329;BME280;5719;42.714;23.732;2023-02-18T05:42:02;95130.56;;;0.15;92.05
11329;BME280;5719;42.714;23.732;2023-02-18T05:44:29;95122.59;;;0.31;90.86
11329;BME280;5719;42.714;23.732;2023-02-18T05:46:56;95123.03;;;0.48;91.20
11329;BME280;5719;42.714;23.732;2023-02-18T05:49:23;95125.34;;;0.59;89.29
11329;BME280;5719;42.714;23.732;2023-02-18T05:51:50;95130.94;;;0.73;87.99
11329;BME280;5719;42.714;23.732;2023-02-18T05:54:18;95132.75;;;0.68;87.87
11329;BME280;5719;42.714;23.732;2023-02-18T05:56:45;95138.53;;;0.75;88.23
11329;BME280;5719;42.714;23.732;2023-02-18T05:59:12;95138.44;;;0.79;87.33
11329;BME280;5719;42.714;23.732;2023-02-18T06:01:39;95134.38;;;0.72;88.00
11329;BME280;5719;42.714;23.732;2023-02-18T06:04:06;95139.38;;;0.38;91.34
11329;BME280;5719;42.714;23.732;2023-02-18T06:06:33;95128.53;;;0.67;90.09
11329;BME280;5719;42.714;23.732;2023-02-18T06:09:01;95128.88;;;0.89;89.71
11329;BME280;5719;42.714;23.732;2023-02-18T06:11:30;95125.34;;;0.94;89.64
11329;BME280;5719;42.714;23.732;2023-02-18T06:13:57;95118.81;;;1.17;88.62
11329;BME280;5719;42.714;23.732;2023-02-18T06:16:25;95131.97;;;1.34;87.69
11329;BME280;5719;42.714;23.732;2023-02-18T06:18:52;95135.97;;;1.42;87.17
11329;BME280;5719;42.714;23.732;2023-02-18T06:21:19;95139.22;;;1.49;87.09
11329;BME280;5719;42.714;23.732;2023-02-18T06:23:46;95137.66;;;1.43;87.32
11329;BME280;5719;42.714;23.732;2023-02-18T06:26:13;95141.50;;;1.58;87.50
11329;BME280;5719;42.714;23.732;2023-02-18T06:28:41;95141.41;;;1.63;87.22
11329;BME280;5719;42.714;23.732;2023-02-18T06:31:08;95130.84;;;1.44;89.08
11329;BME280;5719;42.714;23.732;2023-02-18T06:33:35;95137.84;;;1.36;91.23
11329;BME280;5719;42.714;23.732;2023-02-18T06:36:04;95125.50;;;1.53;90.41
11329;BME280;5719;42.714;23.732;2023-02-18T06:38:32;95125.84;;;1.09;94.94
11329;BME280;5719;42.714;23.732;2023-02-18T06:40:59;95130.00;;;1.11;97.78
11329;BME280;5719;42.714;23.732;2023-02-18T06:43:26;95129.47;;;0.98;97.74
11329;BME280;5719;42.714;23.732;2023-02-18T06:45:55;95134.91;;;0.85;100.00
11329;BME280;5719;42.714;23.732;2023-02-18T06:48:22;95127.47;;;1.43;98.54
11329;BME280;5719;42.714;23.732;2023-02-18T06:50:49;95137.03;;;1.97;97.14
11329;BME280;5719;42.714;23.732;2023-02-18T06:53:17;95132.97;;;2.19;95.63
11329;BME280;5719;42.714;23.732;2023-02-18T06:55:44;95139.22;;;2.38;93.36
11329;BME280;5719;42.714;23.732;2023-02-18T06:58:11;95139.59;;;2.54;92.75
11329;BME280;5719;42.714;23.732;2023-02-18T07:00:39;95132.25;;;2.71;92.78
11329;BME280;5719;42.714;23.732;2023-02-18T07:03:07;95128.16;;;2.92;92.44
11329;BME280;5719;42.714;23.732;2023-02-18T07:05:34;95136.88;;;3.13;92.11
11329;BME280;5719;42.714;23.732;2023-02-18T07:08:01;95133.22;;;3.46;90.60
11329;BME280;5719;42.714;23.732;2023-02-18T07:10:28;95130.03;;;3.64;87.95
11329;BME280;5719;42.714;23.732;2023-02-18T07:12:55;95121.69;;;3.82;86.64
11329;BME280;5719;42.714;23.732;2023-02-18T07:15:22;95118.81;;;3.91;86.03
11329;BME280;5719;42.714;23.732;2023-02-18T07:17:49;95107.44;;;3.99;85.26
11329;BME280;5719;42.714;23.732;2023-02-18T07:20:18;95111.00;;;4.18;85.59
11329;BME280;5719;42.714;23.732;2023-02-18T07:22:46;95116.63;;;4.49;84.42
11329;BME280;5719;42.714;23.732;2023-02-18T07:25:14;95105.94;;;4.61;82.76
11329;BME280;5719;42.714;23.732;2023-02-18T07:27:41;95107.22;;;4.71;79.11
11329;BME280;5719;42.714;23.732;2023-02-18T07:30:09;95114.78;;;4.96;79.29
11329;BME280;5719;42.714;23.732;2023-02-18T07:32:36;95118.97;;;5.19;72.27
11329;BME280;5719;42.714;23.732;2023-02-18T07:35:03;95113.63;;;5.45;73.83
11329;BME280;5719;42.714;23.732;2023-02-18T07:37:32;95110.78;;;5.71;76.75
11329;BME280;5719;42.714;23.732;2023-02-18T07:39:59;95113.19;;;5.95;76.03
11329;BME280;5719;42.714;23.732;2023-02-18T07:42:25;95114.88;;;5.96;75.47
11329;BME280;5719;42.714;23.732;2023-02-18T07:44:52;95120.66;;;6.01;76.68
11329;BME280;5719;42.714;23.732;2023-02-18T07:47:19;95116.94;;;5.87;77.65
11329;BME280;5719;42.714;23.732;2023-02-18T07:49:47;95114.75;;;5.78;77.35
11329;BME280;5719;42.714;23.732;2023-02-18T07:52:14;95117.16;;;5.42;77.35
11329;BME280;5719;42.714;23.732;2023-02-18T07:54:43;95124.72;;;5.46;77.51
11329;BME280;5719;42.714;23.732;2023-02-18T07:57:10;95116.16;;;5.65;78.20
11329;BME280;5719;42.714;23.732;2023-02-18T07:59:37;95115.94;;;6.10;76.55
11329;BME280;5719;42.714;23.732;2023-02-18T08:02:04;95120.31;;;6.08;76.04
11329;BME280;5719;42.714;23.732;2023-02-18T08:04:33;95126.06;;;6.51;73.11
11329;BME280;5719;42.714;23.732;2023-02-18T08:07:00;95117.34;;;6.90;69.93
11329;BME280;5719;42.714;23.732;2023-02-18T08:09:27;95104.03;;;7.00;66.45
11329;BME280;5719;42.714;23.732;2023-02-18T08:11:56;95106.38;;;7.73;61.70
11329;BME280;5719;42.714;23.732;2023-02-18T08:14:23;95103.16;;;8.35;58.09
11329;BME280;5719;42.714;23.732;2023-02-18T08:16:50;95097.19;;;8.50;58.03
11329;BME280;5719;42.714;23.732;2023-02-18T08:19:17;95093.50;;;9.31;54.31
11329;BME280;5719;42.714;23.732;2023-02-18T08:21:44;95078.31;;;9.41;54.67
11329;BME280;5719;42.714;23.732;2023-02-18T08:24:11;95091.97;;;9.87;53.18
11329;BME280;5719;42.714;23.732;2023-02-18T08:26:40;95080.25;;;10.52;52.52
11329;BME280;5719;42.714;23.732;2023-02-18T08:29:09;95080.25;;;10.93;49.77
11329;BME280;5719;42.714;23.732;2023-02-18T08:31:36;95083.78;;;11.31;49.19
11329;BME280;5719;42.714;23.732;2023-02-18T08:34:03;95077.31;;;11.51;48.29
11329;BME280;5719;42.714;23.732;2023-02-18T08:36:30;95082.06;;;11.69;48.17
11329;BME280;5719;42.714;23.732;2023-02-18T08:38:57;95084.25;;;11.50;47.67
11329;BME280;5719;42.714;23.732;2023-02-18T08:41:24;95084.22;;;11.90;48.68
11329;BME280;5719;42.714;23.732;2023-02-18T08:43:51;95087.41;;;12.18;45.80
11329;BME280;5719;42.714;23.732;2023-02-18T08:46:19;95085.59;;;11.56;45.60
11329;BME280;5719;42.714;23.732;2023-02-18T08:48:46;95074.97;;;11.21;46.55
11329;BME280;5719;42.714;23.732;2023-02-18T08:51:15;95076.88;;;10.23;49.11
11329;BME280;5719;42.714;23.732;2023-02-18T08:53:43;95065.84;;;9.77;50.69
11329;BME280;5719;42.714;23.732;2023-02-18T08:56:11;95068.72;;;9.72;50.76
11329;BME280;5719;42.714;23.732;2023-02-18T08:58:39;95076.09;;;9.78;50.56
11329;BME280;5719;42.714;23.732;2023-02-18T09:01:08;95076.84;;;9.07;53.20
11329;BME280;5719;42.714;23.732;2023-02-18T09:03:37;95091.00;;;9.29;53.15
11329;BME280;5719;42.714;23.732;2023-02-18T09:06:05;95077.00;;;9.33;53.25
11329;BME280;5719;42.714;23.732;2023-02-18T09:08:32;95068.53;;;9.31;53.87
11329;BME280;5719;42.714;23.732;2023-02-18T09:11:00;95075.44;;;9.75;52.38
11329;BME280;5719;42.714;23.732;2023-02-18T09:13:29;95074.28;;;10.23;51.03
11329;BME280;5719;42.714;23.732;2023-02-18T09:15:58;95069.25;;;10.62;50.38
11329;BME280;5719;42.714;23.732;2023-02-18T09:18:26;95066.84;;;10.59;50.78
11329;BME280;5719;42.714;23.732;2023-02-18T09:20:57;95056.41;;;11.14;51.14
11329;BME280;5719;42.714;23.732;2023-02-18T09:23:24;95053.00;;;11.78;50.35
11329;BME280;5719;42.714;23.732;2023-02-18T09:25:51;95060.53;;;12.32;48.41
11329;BME280;5719;42.714;23.732;2023-02-18T09:28:18;95046.66;;;12.57;47.36
11329;BME280;5719;42.714;23.732;2023-02-18T09:30:46;95034.13;;;12.27;47.02
11329;BME280;5719;42.714;23.732;2023-02-18T09:33:13;95035.22;;;12.36;47.44
11329;BME280;5719;42.714;23.732;2023-02-18T09:35:40;95035.81;;;11.77;48.50
11329;BME280;5719;42.714;23.732;2023-02-18T09:38:10;95036.63;;;11.78;49.23
11329;BME280;5719;42.714;23.732;2023-02-18T09:40:41;95041.50;;;11.83;47.78
11329;BME280;5719;42.714;23.732;2023-02-18T09:43:15;95033.63;;;11.97;47.13
11329;BME280;5719;42.714;23.732;2023-02-18T09:45:44;95026.16;;;13.14;43.03
11329;BME280;5719;42.714;23.732;2023-02-18T09:48:11;95027.25;;;13.80;38.00
11329;BME280;5719;42.714;23.732;2023-02-18T09:50:39;95027.41;;;14.22;36.63
11329;BME280;5719;42.714;23.732;2023-02-18T09:53:06;95017.75;;;14.90;36.56
11329;BME280;5719;42.714;23.732;2023-02-18T09:55:37;95012.25;;;15.36;33.96
11329;BME280;5719;42.714;23.732;2023-02-18T09:58:10;95015.69;;;15.98;33.12
11329;BME280;5719;42.714;23.732;2023-02-18T10:00:40;95006.78;;;16.01;32.94
11329;BME280;5719;42.714;23.732;2023-02-18T10:03:14;95009.59;;;15.47;33.79
11329;BME280;5719;42.714;23.732;2023-02-18T10:05:47;95014.97;;;15.34;35.00
11329;BME280;5719;42.714;23.732;2023-02-18T10:08:20;95005.13;;;15.38;34.66
11329;BME280;5719;42.714;23.732;2023-02-18T10:10:50;94993.44;;;14.57;36.17
11329;BME280;5719;42.714;23.732;2023-02-18T10:13:19;95014.84;;;14.61;36.29
11329;BME280;5719;42.714;23.732;2023-02-18T10:15:47;95008.50;;;14.32;35.90
11329;BME280;5719;42.714;23.732;2023-02-18T10:18:24;94991.00;;;14.34;34.68
11329;BME280;5719;42.714;23.732;2023-02-18T10:20:56;94986.63;;;14.88;35.72
11329;BME280;5719;42.714;23.732;2023-02-18T10:23:24;94996.22;;;15.51;33.46
11329;BME280;5719;42.714;23.732;2023-02-18T10:25:54;94987.94;;;15.88;32.36
11329;BME280;5719;42.714;23.732;2023-02-18T10:28:24;94979.59;;;16.03;31.81
11329;BME280;5719;42.714;23.732;2023-02-18T10:30:56;94990.78;;;15.64;31.82
11329;BME280;5719;42.714;23.732;2023-02-18T10:33:33;94976.97;;;15.94;31.30
11329;BME280;5719;42.714;23.732;2023-02-18T10:36:06;94980.78;;;15.90;31.57
11329;BME280;5719;42.714;23.732;2023-02-18T10:38:57;94976.53;;;16.19;31.42
11329;BME280;5719;42.714;23.732;2023-02-18T10:41:35;94966.34;;;16.16;31.01
11329;BME280;5719;42.714;23.732;2023-02-18T10:44:14;94974.06;;;15.66;31.73
11329;BME280;5719;42.714;23.732;2023-02-18T10:46:49;94966.25;;;16.27;31.56
11329;BME280;5719;42.714;23.732;2023-02-18T10:49:37;94971.25;;;16.49;31.16
11329;BME280;5719;42.714;23.732;2023-02-18T10:52:13;94963.66;;;16.86;31.50
11329;BME280;5719;42.714;23.732;2023-02-18T10:54:53;94969.03;;;17.04;30.86
11329;BME280;5719;42.714;23.732;2023-02-18T10:57:25;94963.78;;;17.52;30.20
11329;BME280;5719;42.714;23.732;2023-02-18T10:59:58;94969.72;;;17.25;30.33
11329;BME280;5719;42.714;23.732;2023-02-18T11:02:27;94970.16;;;16.42;31.82
11329;BME280;5719;42.714;23.732;2023-02-18T11:04:56;94967.22;;;16.76;30.77
11329;BME280;5719;42.714;23.732;2023-02-18T11:07:28;94949.78;;;16.95;30.42
11329;BME280;5719;42.714;23.732;2023-02-18T11:09:57;94958.16;;;17.37;29.30
11329;BME280;5719;42.714;23.732;2023-02-18T11:12:29;94948.53;;;16.80;29.96
11329;BME280;5719;42.714;23.732;2023-02-18T11:15:14;94949.16;;;16.53;31.12
11329;BME280;5719;42.714;23.732;2023-02-18T11:17:43;94943.06;;;16.43;31.15
11329;BME280;5719;42.714;23.732;2023-02-18T11:20:22;94940.63;;;16.42;31.97
11329;BME280;5719;42.714;23.732;2023-02-18T11:22:49;94938.72;;;16.53;32.57
11329;BME280;5719;42.714;23.732;2023-02-18T11:25:22;94936.31;;;17.00;32.02
11329;BME280;5719;42.714;23.732;2023-02-18T11:27:54;94915.97;;;16.94;32.27
11329;BME280;5719;42.714;23.732;2023-02-18T11:30:24;94918.16;;;16.70;32.74
11329;BME280;5719;42.714;23.732;2023-02-18T11:32:55;94915.22;;;16.53;32.26
11329;BME280;5719;42.714;23.732;2023-02-18T11:35:26;94918.28;;;16.58;32.88
11329;BME280;5719;42.714;23.732;2023-02-18T11:37:56;94918.97;;;17.18;32.67
11329;BME280;5719;42.714;23.732;2023-02-18T11:40:27;94906.34;;;17.79;31.75
11329;BME280;5719;42.714;23.732;2023-02-18T11:43:09;94914.41;;;17.95;32.13
11329;BME280;5719;42.714;23.732;2023-02-18T11:45:38;94908.72;;;18.00;32.12
11329;BME280;5719;42.714;23.732;2023-02-18T11:48:07;94900.22;;;17.98;31.27
11329;BME280;5719;42.714;23.732;2023-02-18T11:50:39;94893.63;;;18.21;31.37
11329;BME280;5719;42.714;23.732;2023-02-18T11:53:26;94899.09;;;17.54;31.93
11329;BME280;5719;42.714;23.732;2023-02-18T11:55:54;94884.16;;;17.27;32.28
11329;BME280;5719;42.714;23.732;2023-02-18T11:58:24;94890.63;;;17.33;32.52
11329;BME280;5719;42.714;23.732;2023-02-18T12:00:54;94887.81;;;18.27;31.49
11329;BME280;5719;42.714;23.732;2023-02-18T12:03:29;94872.34;;;18.34;30.19
11329;BME280;5719;42.714;23.732;2023-02-18T12:06:01;94866.00;;;17.82;30.29
11329;BME280;5719;42.714;23.732;2023-02-18T12:08:34;94868.38;;;18.47;29.76
11329;BME280;5719;42.714;23.732;2023-02-18T12:11:09;94863.56;;;18.25;30.08
11329;BME280;5719;42.714;23.732;2023-02-18T12:13:43;94863.31;;;18.99;29.23
11329;BME280;5719;42.714;23.732;2023-02-18T12:16:19;94857.63;;;19.47;29.01
11329;BME280;5719;42.714;23.732;2023-02-18T12:19:01;94868.25;;;19.63;28.81
11329;BME280;5719;42.714;23.732;2023-02-18T12:21:38;94851.84;;;19.95;28.37
11329;BME280;5719;42.714;23.732;2023-02-18T12:24:23;94861.91;;;19.82;27.82
11329;BME280;5719;42.714;23.732;2023-02-18T12:27:00;94849.66;;;19.56;28.14
11329;BME280;5719;42.714;23.732;2023-02-18T12:30:17;94844.44;;;19.13;28.20
11329;BME280;5719;42.714;23.732;2023-02-18T12:33:00;94830.19;;;18.90;28.72
11329;BME280;5719;42.714;23.732;2023-02-18T12:35:40;94845.41;;;18.41;29.18
11329;BME280;5719;42.714;23.732;2023-02-18T12:38:23;94844.00;;;17.75;30.13
11329;BME280;5719;42.714;23.732;2023-02-18T12:41:10;94840.34;;;17.95;30.14
11329;BME280;5719;42.714;23.732;2023-02-18T12:43:53;94849.22;;;17.75;30.38
11329;BME280;5719;42.714;23.732;2023-02-18T12:46:38;94837.28;;;17.99;30.71
11329;BME280;5719;42.714;23.732;2023-02-18T12:52:17;94844.75;;;17.94;31.35
11329;BME280;5719;42.714;23.732;2023-02-18T12:55:01;94839.16;;;19.05;30.29
11329;BME280;5719;42.714;23.732;2023-02-18T12:57:38;94822.97;;;19.61;29.97
11329;BME280;5719;42.714;23.732;2023-02-18T13:00:41;94824.53;;;20.22;29.00
11329;BME280;5719;42.714;23.732;2023-02-18T13:06:12;94819.78;;;20.25;27.88
11329;BME280;5719;42.714;23.732;2023-02-18T13:08:51;94827.13;;;20.72;28.48
11329;BME280;5719;42.714;23.732;2023-02-18T13:11:35;94833.19;;;20.72;28.45
11329;BME280;5719;42.714;23.732;2023-02-18T13:14:10;94828.84;;;20.31;28.43
11329;BME280;5719;42.714;23.732;2023-02-18T13:16:38;94827.63;;;19.75;28.87
11329;BME280;5719;42.714;23.732;2023-02-18T13:19:15;94832.06;;;20.17;28.45
11329;BME280;5719;42.714;23.732;2023-02-18T13:21:48;94821.22;;;20.20;28.44
11329;BME280;5719;42.714;23.732;2023-02-18T13:24:27;94837.53;;;19.55;29.11
11329;BME280;5719;42.714;23.732;2023-02-18T13:27:01;94816.88;;;19.52;28.84
11329;BME280;5719;42.714;23.732;2023-02-18T13:29:34;94822.06;;;18.57;30.04
11329;BME280;5719;42.714;23.732;2023-02-18T13:32:11;94810.47;;;18.15;30.40
11329;BME280;5719;42.714;23.732;2023-02-18T13:34:47;94816.03;;;17.85;30.55
11329;BME280;5719;42.714;23.732;2023-02-18T13:37:21;94819.00;;;17.53;31.44